sensor_id;sensor_type;location;lat;lon;timestamp;pressure;altitude;pressure_sealevel;temperature;humidity
69574;BME280;62840;52.366;5.980;2023-07-31T00:02:19;100844.91;;;16.62;70.36
69574;BME280;62840;52.366;5.980;2023-07-31T00:04:44;100841.19;;;16.63;70.55
69574;BME280;62840;52.366;5.980;2023-07-31T00:07:10;100839.38;;;16.63;70.82
69574;BME280;62840;52.366;5.980;2023-07-31T00:09:36;100834.97;;;16.62;70.88
69574;BME280;62840;52.366;5.980;2023-07-31T00:12:02;100837.84;;;16.61;70.91
69574;BME280;62840;52.366;5.980;2023-07-31T00:14:28;100829.78;;;16.61;70.83
69574;BME280;62840;52.366;5.980;2023-07-31T00:16:57;100825.38;;;16.60;71.01
69574;BME280;62840;52.366;5.980;2023-07-31T00:19:22;100828.06;;;16.60;71.30
69574;BME280;62840;52.366;5.980;2023-07-31T00:21:49;100821.69;;;16.61;70.82
69574;BME280;62840;52.366;5.980;2023-07-31T00:24:14;100810.06;;;16.60;71.01
69574;BME280;62840;52.366;5.980;2023-07-31T00:26:40;100812.59;;;16.62;71.28
69574;BME280;62840;52.366;5.980;2023-07-31T00:29:06;100794.78;;;16.61;71.15
69574;BME280;62840;52.366;5.980;2023-07-31T00:31:31;100809.91;;;16.62;71.44
69574;BME280;62840;52.366;5.980;2023-07-31T00:34:00;100799.97;;;16.62;71.22
69574;BME280;62840;52.366;5.980;2023-07-31T00:36:25;100796.44;;;16.62;71.08
69574;BME280;62840;52.366;5.980;2023-07-31T00:38:51;100801.81;;;16.62;71.17
69574;BME280;62840;52.366;5.980;2023-07-31T00:41:17;100798.31;;;16.61;71.47
69574;BME280;62840;52.366;5.980;2023-07-31T00:43:43;100798.13;;;16.63;71.47
69574;BME280;62840;52.366;5.980;2023-07-31T00:46:09;100799.81;;;16.64;71.40
69574;BME280;62840;52.366;5.980;2023-07-31T00:48:35;100796.09;;;16.65;71.54
69574;BME280;62840;52.366;5.980;2023-07-31T00:51:03;100787.03;;;16.66;71.48
69574;BME280;62840;52.366;5.980;2023-07-31T00:53:29;100791.56;;;16.65;71.85
69574;BME280;62840;52.366;5.980;2023-07-31T00:55:56;100787.03;;;16.66;71.90
69574;BME280;62840;52.366;5.980;2023-07-31T00:58:22;100781.63;;;16.66;71.63
69574;BME280;62840;52.366;5.980;2023-07-31T01:00:49;100782.31;;;16.68;71.94
69574;BME280;62840;52.366;5.980;2023-07-31T01:03:14;100778.59;;;16.69;71.93
69574;BME280;62840;52.366;5.980;2023-07-31T01:05:49;100780.31;;;16.70;71.62
69574;BME280;62840;52.366;5.980;2023-07-31T01:08:34;100783.00;;;16.70;71.58
69574;BME280;62840;52.366;5.980;2023-07-31T01:11:11;100777.59;;;16.70;71.94
69574;BME280;62840;52.366;5.980;2023-07-31T01:13:42;100772.22;;;16.70;71.97
69574;BME280;62840;52.366;5.980;2023-07-31T01:16:08;100779.28;;;16.71;72.17
69574;BME280;62840;52.366;5.980;2023-07-31T01:18:33;100766.63;;;16.72;72.28
69574;BME280;62840;52.366;5.980;2023-07-31T01:21:06;100761.09;;;16.73;72.25
69574;BME280;62840;52.366;5.980;2023-07-31T01:26:55;100763.78;;;16.73;72.12
69574;BME280;62840;52.366;5.980;2023-07-31T01:29:28;100761.94;;;16.74;71.91
69574;BME280;62840;52.366;5.980;2023-07-31T01:32:05;100768.81;;;16.76;72.44
69574;BME280;62840;52.366;5.980;2023-07-31T01:34:33;100764.47;;;16.75;72.21
69574;BME280;62840;52.366;5.980;2023-07-31T01:37:00;100760.75;;;16.76;72.46
69574;BME280;62840;52.366;5.980;2023-07-31T01:39:26;100757.91;;;16.78;72.48
69574;BME280;62840;52.366;5.980;2023-07-31T01:41:54;100765.81;;;16.79;72.27
69574;BME280;62840;52.366;5.980;2023-07-31T01:44:20;100761.41;;;16.78;72.52
69574;BME280;62840;52.366;5.980;2023-07-31T01:46:46;100755.03;;;16.79;72.69
69574;BME280;62840;52.366;5.980;2023-07-31T01:49:12;100758.44;;;16.81;72.66
69574;BME280;62840;52.366;5.980;2023-07-31T01:51:37;100745.66;;;16.83;72.63
69574;BME280;62840;52.366;5.980;2023-07-31T01:54:03;100748.97;;;16.85;72.92
69574;BME280;62840;52.366;5.980;2023-07-31T01:56:29;100734.53;;;16.86;72.85
69574;BME280;62840;52.366;5.980;2023-07-31T01:58:57;100726.28;;;16.88;73.06
69574;BME280;62840;52.366;5.980;2023-07-31T02:01:23;100725.09;;;16.91;72.91
69574;BME280;62840;52.366;5.980;2023-07-31T02:03:49;100728.78;;;16.89;72.97
69574;BME280;62840;52.366;5.980;2023-07-31T02:06:14;100728.47;;;16.93;72.88
69574;BME280;62840;52.366;5.980;2023-07-31T02:08:40;100724.75;;;16.94;73.00
69574;BME280;62840;52.366;5.980;2023-07-31T02:11:06;100725.41;;;16.96;72.63
69574;BME280;62840;52.366;5.980;2023-07-31T02:13:32;100725.25;;;16.97;73.19
69574;BME280;62840;52.366;5.980;2023-07-31T02:16:00;100718.66;;;17.00;73.23
69574;BME280;62840;52.366;5.980;2023-07-31T02:18:26;100718.66;;;17.00;73.26
69574;BME280;62840;52.366;5.980;2023-07-31T02:20:52;100698.78;;;17.01;72.94
69574;BME280;62840;52.366;5.980;2023-07-31T02:23:18;100698.78;;;17.01;72.74
69574;BME280;62840;52.366;5.980;2023-07-31T02:25:44;100695.09;;;17.02;73.25
69574;BME280;62840;52.366;5.980;2023-07-31T02:28:10;100695.94;;;17.02;73.16
69574;BME280;62840;52.366;5.980;2023-07-31T02:30:36;100694.25;;;17.01;73.19
69574;BME280;62840;52.366;5.980;2023-07-31T02:33:05;100695.09;;;17.02;73.26
69574;BME280;62840;52.366;5.980;2023-07-31T02:35:31;100689.69;;;17.02;73.29
69574;BME280;62840;52.366;5.980;2023-07-31T02:37:56;100684.31;;;17.02;73.34
69574;BME280;62840;52.366;5.980;2023-07-31T02:40:22;100684.31;;;17.02;73.65
69574;BME280;62840;52.366;5.980;2023-07-31T02:42:48;100683.97;;;17.05;73.55
69574;BME280;62840;52.366;5.980;2023-07-31T02:45:14;100680.25;;;17.06;73.59
69574;BME280;62840;52.366;5.980;2023-07-31T02:47:39;100683.59;;;17.08;73.74
69574;BME280;62840;52.366;5.980;2023-07-31T02:50:09;100682.44;;;17.10;73.68
69574;BME280;62840;52.366;5.980;2023-07-31T02:52:35;100677.88;;;17.11;73.83
69574;BME280;62840;52.366;5.980;2023-07-31T02:55:01;100692.03;;;17.13;74.09
69574;BME280;62840;52.366;5.980;2023-07-31T02:57:26;100677.53;;;17.14;74.29
69574;BME280;62840;52.366;5.980;2023-07-31T02:59:52;100680.88;;;17.16;74.05
69574;BME280;62840;52.366;5.980;2023-07-31T03:02:18;100682.59;;;17.17;73.93
69574;BME280;62840;52.366;5.980;2023-07-31T03:04:44;100681.56;;;17.18;73.68
69574;BME280;62840;52.366;5.980;2023-07-31T03:07:12;100681.19;;;17.21;74.05
69574;BME280;62840;52.366;5.980;2023-07-31T03:09:38;100680.19;;;17.22;73.80
69574;BME280;62840;52.366;5.980;2023-07-31T03:12:04;100685.59;;;17.22;73.84
69574;BME280;62840;52.366;5.980;2023-07-31T03:14:30;100676.47;;;17.23;74.04
69574;BME280;62840;52.366;5.980;2023-07-31T03:16:56;100671.09;;;17.23;73.84
69574;BME280;62840;52.366;5.980;2023-07-31T03:19:22;100685.22;;;17.25;73.96
69574;BME280;62840;52.366;5.980;2023-07-31T03:21:48;100689.63;;;17.26;74.25
69574;BME280;62840;52.366;5.980;2023-07-31T03:24:16;100683.19;;;17.27;73.80
69574;BME280;62840;52.366;5.980;2023-07-31T03:26:42;100684.91;;;17.28;74.11
69574;BME280;62840;52.366;5.980;2023-07-31T03:29:08;100684.91;;;17.28;73.92
69574;BME280;62840;52.366;5.980;2023-07-31T03:31:34;100681.19;;;17.29;73.95
69574;BME280;62840;52.366;5.980;2023-07-31T03:33:59;100688.22;;;17.30;74.03
69574;BME280;62840;52.366;5.980;2023-07-31T03:36:25;100682.00;;;17.30;74.44
69574;BME280;62840;52.366;5.980;2023-07-31T03:38:51;100686.19;;;17.33;74.15
69574;BME280;62840;52.366;5.980;2023-07-31T03:41:20;100687.91;;;17.34;74.22
69574;BME280;62840;52.366;5.980;2023-07-31T03:43:47;100687.06;;;17.33;74.38
69574;BME280;62840;52.366;5.980;2023-07-31T03:46:15;100686.19;;;17.33;74.34
69574;BME280;62840;52.366;5.980;2023-07-31T03:48:41;100680.81;;;17.33;74.34
69574;BME280;62840;52.366;5.980;2023-07-31T03:51:06;100671.72;;;17.34;74.59
69574;BME280;62840;52.366;5.980;2023-07-31T03:53:32;100666.50;;;17.32;74.36
69574;BME280;62840;52.366;5.980;2023-07-31T03:55:58;100672.72;;;17.33;74.24
69574;BME280;62840;52.366;5.980;2023-07-31T03:58:26;100664.63;;;17.33;74.33
69574;BME280;62840;52.366;5.980;2023-07-31T04:00:52;100668.00;;;17.35;74.25
69574;BME280;62840;52.366;5.980;2023-07-31T04:03:18;100674.25;;;17.35;74.29
69574;BME280;62840;52.366;5.980;2023-07-31T04:05:44;100674.25;;;17.35;74.56
69574;BME280;62840;52.366;5.980;2023-07-31T04:08:10;100665.97;;;17.37;74.38
69574;BME280;62840;52.366;5.980;2023-07-31T04:10:35;100664.31;;;17.36;74.16
69574;BME280;62840;52.366;5.980;2023-07-31T04:13:01;100664.31;;;17.36;74.48
69574;BME280;62840;52.366;5.980;2023-07-31T04:15:29;100665.97;;;17.37;74.27
69574;BME280;62840;52.366;5.980;2023-07-31T04:17:55;100658.91;;;17.36;74.32
69574;BME280;62840;52.366;5.980;2023-07-31T04:20:21;100657.22;;;17.35;74.70
69574;BME280;62840;52.366;5.980;2023-07-31T04:22:47;100661.63;;;17.36;74.74
69574;BME280;62840;52.366;5.980;2023-07-31T04:25:12;100653.53;;;17.36;74.49
69574;BME280;62840;52.366;5.980;2023-07-31T04:27:39;100651.81;;;17.35;74.22
69574;BME280;62840;52.366;5.980;2023-07-31T04:30:07;100658.91;;;17.36;74.41
69574;BME280;62840;52.366;5.980;2023-07-31T04:32:36;100649.81;;;17.37;74.13
69574;BME280;62840;52.366;5.980;2023-07-31T04:35:01;100650.84;;;17.36;74.65
69574;BME280;62840;52.366;5.980;2023-07-31T04:37:27;100648.13;;;17.36;74.55
69574;BME280;62840;52.366;5.980;2023-07-31T04:39:53;100644.78;;;17.34;74.39
69574;BME280;62840;52.366;5.980;2023-07-31T04:42:19;100639.38;;;17.34;74.13
69574;BME280;62840;52.366;5.980;2023-07-31T04:44:45;100632.28;;;17.33;74.25
69574;BME280;62840;52.366;5.980;2023-07-31T04:47:11;100636.84;;;17.32;74.33
69574;BME280;62840;52.366;5.980;2023-07-31T04:49:39;100634.31;;;17.30;74.43
69574;BME280;62840;52.366;5.980;2023-07-31T04:52:05;100637.69;;;17.33;74.43
69574;BME280;62840;52.366;5.980;2023-07-31T04:54:31;100630.63;;;17.31;74.56
69574;BME280;62840;52.366;5.980;2023-07-31T04:56:57;100630.63;;;17.31;74.35
69574;BME280;62840;52.366;5.980;2023-07-31T04:59:23;100641.25;;;17.33;74.35
69574;BME280;62840;52.366;5.980;2023-07-31T05:01:48;100637.69;;;17.33;74.62
69574;BME280;62840;52.366;5.980;2023-07-31T05:04:14;100644.09;;;17.31;74.71
69574;BME280;62840;52.366;5.980;2023-07-31T05:06:43;100645.09;;;17.30;74.57
69574;BME280;62840;52.366;5.980;2023-07-31T05:09:08;100641.56;;;17.30;74.67
69574;BME280;62840;52.366;5.980;2023-07-31T05:11:34;100637.03;;;17.30;74.37
69574;BME280;62840;52.366;5.980;2023-07-31T05:14:00;100626.44;;;17.29;74.37
69574;BME280;62840;52.366;5.980;2023-07-31T05:16:26;100621.88;;;17.29;74.19
69574;BME280;62840;52.366;5.980;2023-07-31T05:18:52;100627.25;;;17.29;74.62
69574;BME280;62840;52.366;5.980;2023-07-31T05:21:17;100633.50;;;17.30;74.40
69574;BME280;62840;52.366;5.980;2023-07-31T05:23:46;100625.22;;;17.31;74.56
69574;BME280;62840;52.366;5.980;2023-07-31T05:26:12;100609.06;;;17.31;74.59
69574;BME280;62840;52.366;5.980;2023-07-31T05:28:38;100622.72;;;17.30;74.40
69574;BME280;62840;52.366;5.980;2023-07-31T05:31:04;100622.53;;;17.31;74.47
69574;BME280;62840;52.366;5.980;2023-07-31T05:33:31;100614.44;;;17.31;74.43
69574;BME280;62840;52.366;5.980;2023-07-31T05:35:57;100610.06;;;17.30;74.55
69574;BME280;62840;52.366;5.980;2023-07-31T05:38:22;100609.22;;;17.30;74.17
69574;BME280;62840;52.366;5.980;2023-07-31T05:40:51;100610.94;;;17.31;74.55
69574;BME280;62840;52.366;5.980;2023-07-31T05:43:17;100606.72;;;17.28;74.31
69574;BME280;62840;52.366;5.980;2023-07-31T05:45:43;100605.69;;;17.29;74.43
69574;BME280;62840;52.366;5.980;2023-07-31T05:48:08;100607.38;;;17.30;74.25
69574;BME280;62840;52.366;5.980;2023-07-31T05:50:34;100605.03;;;17.27;74.46
69574;BME280;62840;52.366;5.980;2023-07-31T05:53:00;100620.22;;;17.28;74.10
69574;BME280;62840;52.366;5.980;2023-07-31T05:55:26;100600.69;;;17.26;74.24
69574;BME280;62840;52.366;5.980;2023-07-31T05:57:55;100597.97;;;17.26;74.50
69574;BME280;62840;52.366;5.980;2023-07-31T06:00:21;100593.59;;;17.25;74.28
69574;BME280;62840;52.366;5.980;2023-07-31T06:02:46;100588.19;;;17.25;74.15
69574;BME280;62840;52.366;5.980;2023-07-31T06:05:13;100586.53;;;17.24;74.71
69574;BME280;62840;52.366;5.980;2023-07-31T06:07:38;100584.84;;;17.23;74.35
69574;BME280;62840;52.366;5.980;2023-07-31T06:10:06;100572.41;;;17.22;74.54
69574;BME280;62840;52.366;5.980;2023-07-31T06:12:32;100581.31;;;17.23;74.57
69574;BME280;62840;52.366;5.980;2023-07-31T06:15:03;100586.88;;;17.21;74.52
69574;BME280;62840;52.366;5.980;2023-07-31T06:17:29;100583.50;;;17.19;74.49
69574;BME280;62840;52.366;5.980;2023-07-31T06:19:56;100577.47;;;17.17;74.61
69574;BME280;62840;52.366;5.980;2023-07-31T06:22:22;100568.53;;;17.17;74.76
69574;BME280;62840;52.366;5.980;2023-07-31T06:24:48;100573.09;;;17.16;74.49
69574;BME280;62840;52.366;5.980;2023-07-31T06:27:14;100577.28;;;17.19;74.71
69574;BME280;62840;52.366;5.980;2023-07-31T06:29:40;100578.13;;;17.19;74.73
69574;BME280;62840;52.366;5.980;2023-07-31T06:32:08;100572.72;;;17.19;74.53
69574;BME280;62840;52.366;5.980;2023-07-31T06:34:34;100565.16;;;17.15;74.82
69574;BME280;62840;52.366;5.980;2023-07-31T06:37:00;100559.63;;;17.16;74.90
69574;BME280;62840;52.366;5.980;2023-07-31T06:39:25;100558.78;;;17.16;74.85
69574;BME280;62840;52.366;5.980;2023-07-31T06:41:51;100556.91;;;17.16;74.66
69574;BME280;62840;52.366;5.980;2023-07-31T06:44:17;100553.22;;;17.17;74.42
69574;BME280;62840;52.366;5.980;2023-07-31T06:46:42;100548.66;;;17.18;75.14
69574;BME280;62840;52.366;5.980;2023-07-31T06:49:11;100553.22;;;17.17;74.65
69574;BME280;62840;52.366;5.980;2023-07-31T06:51:36;100550.34;;;17.19;74.84
69574;BME280;62840;52.366;5.980;2023-07-31T06:54:02;100552.38;;;17.17;74.78
69574;BME280;62840;52.366;5.980;2023-07-31T06:56:28;100554.91;;;17.18;74.64
69574;BME280;62840;52.366;5.980;2023-07-31T06:58:55;100549.50;;;17.18;74.90
69574;BME280;62840;52.366;5.980;2023-07-31T07:01:21;100555.72;;;17.19;74.78
69574;BME280;62840;52.366;5.980;2023-07-31T07:03:47;100540.38;;;17.19;74.97
69574;BME280;62840;52.366;5.980;2023-07-31T07:06:15;100536.84;;;17.19;74.88
69574;BME280;62840;52.366;5.980;2023-07-31T07:08:41;100535.66;;;17.21;74.71
69574;BME280;62840;52.366;5.980;2023-07-31T07:11:07;100536.69;;;17.20;75.23
69574;BME280;62840;52.366;5.980;2023-07-31T07:13:33;100534.66;;;17.22;75.27
69574;BME280;62840;52.366;5.980;2023-07-31T07:15:58;100530.94;;;17.23;75.25
69574;BME280;62840;52.366;5.980;2023-07-31T07:18:24;100525.53;;;17.23;74.91
69574;BME280;62840;52.366;5.980;2023-07-31T07:20:51;100532.63;;;17.24;75.17
69574;BME280;62840;52.366;5.980;2023-07-31T07:23:20;100534.97;;;17.27;75.26
69574;BME280;62840;52.366;5.980;2023-07-31T07:25:47;100520.28;;;17.30;75.38
69574;BME280;62840;52.366;5.980;2023-07-31T07:28:13;100522.81;;;17.31;75.39
69574;BME280;62840;52.366;5.980;2023-07-31T07:30:39;100524.47;;;17.33;75.36
69574;BME280;62840;52.366;5.980;2023-07-31T07:33:05;100526.16;;;17.34;75.47
69574;BME280;62840;52.366;5.980;2023-07-31T07:35:33;100520.78;;;17.34;75.35
69574;BME280;62840;52.366;5.980;2023-07-31T07:37:59;100523.31;;;17.35;75.20
69574;BME280;62840;52.366;5.980;2023-07-31T07:40:27;100516.72;;;17.38;75.50
69574;BME280;62840;52.366;5.980;2023-07-31T07:42:53;100523.59;;;17.40;75.18
69574;BME280;62840;52.366;5.980;2023-07-31T07:45:19;100516.34;;;17.41;75.58
69574;BME280;62840;52.366;5.980;2023-07-31T07:47:44;100512.63;;;17.42;75.44
69574;BME280;62840;52.366;5.980;2023-07-31T07:50:10;100514.31;;;17.43;75.53
69574;BME280;62840;52.366;5.980;2023-07-31T07:52:36;100517.66;;;17.45;75.13
69574;BME280;62840;52.366;5.980;2023-07-31T07:55:02;100507.53;;;17.47;75.37
69574;BME280;62840;52.366;5.980;2023-07-31T07:57:30;100510.22;;;17.47;75.29
69574;BME280;62840;52.366;5.980;2023-07-31T07:59:56;100511.91;;;17.48;75.64
69574;BME280;62840;52.366;5.980;2023-07-31T08:02:22;100510.91;;;17.49;75.42
69574;BME280;62840;52.366;5.980;2023-07-31T08:04:48;100508.19;;;17.49;75.82
69574;BME280;62840;52.366;5.980;2023-07-31T08:07:14;100509.84;;;17.50;75.64
69574;BME280;62840;52.366;5.980;2023-07-31T08:09:40;100501.59;;;17.51;75.41
69574;BME280;62840;52.366;5.980;2023-07-31T08:12:07;100493.97;;;17.55;75.79
69574;BME280;62840;52.366;5.980;2023-07-31T08:14:36;100491.28;;;17.55;75.82
69574;BME280;62840;52.366;5.980;2023-07-31T08:17:02;100492.97;;;17.56;75.45
69574;BME280;62840;52.366;5.980;2023-07-31T08:19:28;100482.00;;;17.58;75.70
69574;BME280;62840;52.366;5.980;2023-07-31T08:21:53;100483.50;;;17.60;75.66
69574;BME280;62840;52.366;5.980;2023-07-31T08:24:19;100483.50;;;17.60;75.52
69574;BME280;62840;52.366;5.980;2023-07-31T08:26:45;100485.81;;;17.63;75.71
69574;BME280;62840;52.366;5.980;2023-07-31T08:29:12;100484.81;;;17.64;75.65
69574;BME280;62840;52.366;5.980;2023-07-31T08:31:40;100482.75;;;17.66;76.02
69574;BME280;62840;52.366;5.980;2023-07-31T08:34:06;100483.41;;;17.68;75.64
69574;BME280;62840;52.366;5.980;2023-07-31T08:36:31;100480.72;;;17.68;75.56
69574;BME280;62840;52.366;5.980;2023-07-31T08:38:57;100484.06;;;17.70;75.98
69574;BME280;62840;52.366;5.980;2023-07-31T08:41:23;100480.38;;;17.71;75.83
69574;BME280;62840;52.366;5.980;2023-07-31T08:43:49;100481.84;;;17.74;75.93
69574;BME280;62840;52.366;5.980;2023-07-31T08:46:16;100471.56;;;17.78;76.05
69574;BME280;62840;52.366;5.980;2023-07-31T08:48:45;100480.31;;;17.80;75.74
69574;BME280;62840;52.366;5.980;2023-07-31T08:51:11;100472.03;;;17.81;75.89
69574;BME280;62840;52.366;5.980;2023-07-31T08:53:36;100478.91;;;17.84;76.10
69574;BME280;62840;52.366;5.980;2023-07-31T08:56:03;100475.22;;;17.85;76.16
69574;BME280;62840;52.366;5.980;2023-07-31T08:58:32;100474.84;;;17.88;76.09
69574;BME280;62840;52.366;5.980;2023-07-31T09:01:01;100473.63;;;17.90;75.71
69574;BME280;62840;52.366;5.980;2023-07-31T09:03:33;100481.56;;;17.92;75.87
69574;BME280;62840;52.366;5.980;2023-07-31T09:06:02;100469.72;;;17.93;76.18
69574;BME280;62840;52.366;5.980;2023-07-31T09:08:31;100471.59;;;17.92;76.26
69574;BME280;62840;52.366;5.980;2023-07-31T09:10:59;100477.81;;;17.93;76.27
69574;BME280;62840;52.366;5.980;2023-07-31T09:13:25;100472.06;;;17.96;75.97
69574;BME280;62840;52.366;5.980;2023-07-31T09:15:53;100471.03;;;17.97;76.28
69574;BME280;62840;52.366;5.980;2023-07-31T09:18:18;100471.69;;;17.99;76.13
69574;BME280;62840;52.366;5.980;2023-07-31T09:20:44;100466.94;;;18.01;75.95
69574;BME280;62840;52.366;5.980;2023-07-31T09:23:13;100461.38;;;18.03;76.12
69574;BME280;62840;52.366;5.980;2023-07-31T09:25:43;100458.47;;;18.04;76.34
69574;BME280;62840;52.366;5.980;2023-07-31T09:28:10;100463.53;;;18.07;75.85
69574;BME280;62840;52.366;5.980;2023-07-31T09:30:45;100462.31;;;18.10;76.48
69574;BME280;62840;52.366;5.980;2023-07-31T09:33:12;100457.75;;;18.10;76.41
69574;BME280;62840;52.366;5.980;2023-07-31T09:35:38;100461.09;;;18.12;76.42
69574;BME280;62840;52.366;5.980;2023-07-31T09:38:06;100443.84;;;18.13;76.04
69574;BME280;62840;52.366;5.980;2023-07-31T09:40:37;100447.03;;;18.17;76.36
69574;BME280;62840;52.366;5.980;2023-07-31T09:43:06;100444.16;;;18.19;76.07
69574;BME280;62840;52.366;5.980;2023-07-31T09:45:34;100452.53;;;18.24;76.75
69574;BME280;62840;52.366;5.980;2023-07-31T09:48:01;100447.13;;;18.24;76.54
69574;BME280;62840;52.366;5.980;2023-07-31T09:50:26;100446.75;;;18.27;76.27
69574;BME280;62840;52.366;5.980;2023-07-31T09:52:52;100444.69;;;18.29;76.23
69574;BME280;62840;52.366;5.980;2023-07-31T09:55:19;100448.06;;;18.31;76.09
69574;BME280;62840;52.366;5.980;2023-07-31T09:57:48;100439.78;;;18.32;76.29
69574;BME280;62840;52.366;5.980;2023-07-31T10:00:16;100440.22;;;18.36;76.91
69574;BME280;62840;52.366;5.980;2023-07-31T10:02:45;100439.88;;;18.39;76.82
69574;BME280;62840;52.366;5.980;2023-07-31T10:05:13;100431.38;;;18.42;76.45
69574;BME280;62840;52.366;5.980;2023-07-31T10:07:42;100440.13;;;18.44;76.92
69574;BME280;62840;52.366;5.980;2023-07-31T10:10:11;100431.63;;;18.47;76.89
69574;BME280;62840;52.366;5.980;2023-07-31T10:12:39;100435.00;;;18.49;76.42
69574;BME280;62840;52.366;5.980;2023-07-31T10:15:09;100440.03;;;18.52;76.75
69574;BME280;62840;52.366;5.980;2023-07-31T10:17:36;100436.13;;;18.55;76.47
69574;BME280;62840;52.366;5.980;2023-07-31T10:20:02;100443.38;;;18.54;76.50
69574;BME280;62840;52.366;5.980;2023-07-31T10:22:29;100437.97;;;18.54;76.87
69574;BME280;62840;52.366;5.980;2023-07-31T10:24:58;100441.50;;;18.55;76.71
69574;BME280;62840;52.366;5.980;2023-07-31T10:27:25;100435.91;;;18.56;76.56
69574;BME280;62840;52.366;5.980;2023-07-31T10:29:52;100441.31;;;18.56;76.50
69574;BME280;62840;52.366;5.980;2023-07-31T10:32:23;100441.31;;;18.56;76.50
69574;BME280;62840;52.366;5.980;2023-07-31T10:34:51;100424.09;;;18.58;76.70
69574;BME280;62840;52.366;5.980;2023-07-31T10:37:24;100427.63;;;18.58;76.57
69574;BME280;62840;52.366;5.980;2023-07-31T10:40:01;100425.38;;;18.62;76.60
69574;BME280;62840;52.366;5.980;2023-07-31T10:42:30;100430.78;;;18.62;76.85
69574;BME280;62840;52.366;5.980;2023-07-31T10:44:59;100429.75;;;18.63;76.62
69574;BME280;62840;52.366;5.980;2023-07-31T10:47:28;100429.38;;;18.66;77.07
69574;BME280;62840;52.366;5.980;2023-07-31T10:50:12;100431.88;;;18.67;76.85
69574;BME280;62840;52.366;5.980;2023-07-31T10:52:45;100434.44;;;18.69;77.00
69574;BME280;62840;52.366;5.980;2023-07-31T10:55:16;100430.69;;;18.70;77.00
69574;BME280;62840;52.366;5.980;2023-07-31T10:57:50;100430.31;;;18.73;76.96
69574;BME280;62840;52.366;5.980;2023-07-31T11:00:20;100424.28;;;18.71;76.81
69574;BME280;62840;52.366;5.980;2023-07-31T11:03:03;100432.00;;;18.74;76.86
69574;BME280;62840;52.366;5.980;2023-07-31T11:05:47;100435.34;;;18.76;77.15
69574;BME280;62840;52.366;5.980;2023-07-31T11:08:16;100442.44;;;18.77;76.69
69574;BME280;62840;52.366;5.980;2023-07-31T11:10:44;100431.63;;;18.77;76.74
69574;BME280;62840;52.366;5.980;2023-07-31T11:13:11;100433.28;;;18.78;76.83
69574;BME280;62840;52.366;5.980;2023-07-31T11:15:37;100433.28;;;18.78;76.96
69574;BME280;62840;52.366;5.980;2023-07-31T11:18:06;100423.53;;;18.77;76.98
69574;BME280;62840;52.366;5.980;2023-07-31T11:20:32;100432.88;;;18.81;77.09
69574;BME280;62840;52.366;5.980;2023-07-31T11:23:00;100426.47;;;18.82;76.99
69574;BME280;62840;52.366;5.980;2023-07-31T11:25:28;100425.44;;;18.83;76.93
69574;BME280;62840;52.366;5.980;2023-07-31T11:27:54;100426.28;;;18.84;76.96
69574;BME280;62840;52.366;5.980;2023-07-31T11:30:20;100430.47;;;18.86;77.08
69574;BME280;62840;52.366;5.980;2023-07-31T11:32:46;100432.13;;;18.87;77.03
69574;BME280;62840;52.366;5.980;2023-07-31T11:35:14;100424.03;;;18.87;76.76
69574;BME280;62840;52.366;5.980;2023-07-31T11:37:40;100422.16;;;18.88;77.03
69574;BME280;62840;52.366;5.980;2023-07-31T11:40:08;100430.09;;;18.89;76.70
69574;BME280;62840;52.366;5.980;2023-07-31T11:42:34;100426.97;;;18.92;77.05
69574;BME280;62840;52.366;5.980;2023-07-31T11:45:02;100420.09;;;18.90;76.89
69574;BME280;62840;52.366;5.980;2023-07-31T11:47:29;100434.25;;;18.92;77.13
69574;BME280;62840;52.366;5.980;2023-07-31T11:49:57;100420.94;;;18.90;76.93
69574;BME280;62840;52.366;5.980;2023-07-31T11:52:26;100417.22;;;18.91;76.85
69574;BME280;62840;52.366;5.980;2023-07-31T11:54:54;100424.28;;;18.92;76.80
69574;BME280;62840;52.366;5.980;2023-07-31T11:57:20;100426.97;;;18.92;76.92
69574;BME280;62840;52.366;5.980;2023-07-31T11:59:46;100423.09;;;18.95;77.10
69574;BME280;62840;52.366;5.980;2023-07-31T12:02:12;100421.88;;;18.98;77.29
69574;BME280;62840;52.366;5.980;2023-07-31T12:04:38;100419.81;;;19.00;76.76
69574;BME280;62840;52.366;5.980;2023-07-31T12:07:05;100416.72;;;19.03;77.17
69574;BME280;62840;52.366;5.980;2023-07-31T12:09:33;100424.41;;;19.06;77.14
69574;BME280;62840;52.366;5.980;2023-07-31T12:11:59;100414.91;;;19.10;77.00
69574;BME280;62840;52.366;5.980;2023-07-31T12:14:26;100430.75;;;19.13;76.94
69574;BME280;62840;52.366;5.980;2023-07-31T12:16:54;100427.00;;;19.14;77.21
69574;BME280;62840;52.366;5.980;2023-07-31T12:19:20;100427.84;;;19.14;76.84
69574;BME280;62840;52.366;5.980;2023-07-31T12:21:46;100424.94;;;19.16;76.73
69574;BME280;62840;52.366;5.980;2023-07-31T12:24:11;100432.00;;;19.17;76.89
69574;BME280;62840;52.366;5.980;2023-07-31T12:26:40;100423.72;;;19.18;76.76
69574;BME280;62840;52.366;5.980;2023-07-31T12:29:07;100426.03;;;19.22;77.34
69574;BME280;62840;52.366;5.980;2023-07-31T12:31:33;100425.66;;;19.25;77.36
69574;BME280;62840;52.366;5.980;2023-07-31T12:33:59;100424.63;;;19.26;77.28
69574;BME280;62840;52.366;5.980;2023-07-31T12:36:25;100423.78;;;19.25;77.19
69574;BME280;62840;52.366;5.980;2023-07-31T12:38:52;100430.84;;;19.26;76.76
69574;BME280;62840;52.366;5.980;2023-07-31T12:41:18;100427.53;;;19.24;76.55
69574;BME280;62840;52.366;5.980;2023-07-31T12:43:46;100419.41;;;19.24;76.56
69574;BME280;62840;52.366;5.980;2023-07-31T12:46:12;100423.13;;;19.23;76.53
69574;BME280;62840;52.366;5.980;2023-07-31T12:48:38;100418.78;;;19.22;76.53
69574;BME280;62840;52.366;5.980;2023-07-31T12:51:05;100407.97;;;19.22;76.55
69574;BME280;62840;52.366;5.980;2023-07-31T12:53:31;100402.56;;;19.22;76.97